createdAt,value
2022-11-16T00:00:51.313Z,6.46
2022-11-16T00:03:24.515Z,6.41
2022-11-16T00:06:00.934Z,6.19
2022-11-16T00:08:35.497Z,6.19
2022-11-16T00:11:10.694Z,6.30
2022-11-16T00:13:45.034Z,6.45
2022-11-16T00:16:21.835Z,6.26
2022-11-16T00:19:00.033Z,6.09
2022-11-16T00:21:33.535Z,6.13
2022-11-16T00:24:07.395Z,6.19
2022-11-16T00:26:40.401Z,6.10
2022-11-16T00:29:18.277Z,6.37
2022-11-16T00:31:54.538Z,6.05
2022-11-16T00:34:28.081Z,6.33
2022-11-16T00:37:00.976Z,6.54
2022-11-16T00:39:34.861Z,6.48
2022-11-16T00:42:07.573Z,6.39
2022-11-16T00:44:40.912Z,6.39
2022-11-16T00:47:16.053Z,6.54
2022-11-16T00:49:49.074Z,6.18
2022-11-16T00:52:21.513Z,6.30
2022-11-16T00:55:35.760Z,6.10
2022-11-16T00:58:08.476Z,5.94
2022-11-16T01:00:41.755Z,6.07
2022-11-16T01:03:17.036Z,5.94
2022-11-16T01:05:50.183Z,5.83
2022-11-16T01:08:22.719Z,6.18
2022-11-16T01:10:55.874Z,5.97
2022-11-16T01:13:25.715Z,5.77
2022-11-16T01:16:00.085Z,6.14
2022-11-16T01:18:35.573Z,5.86
2022-11-16T01:21:10.676Z,6.04
2022-11-16T01:23:43.094Z,5.99
2022-11-16T01:26:16.113Z,6.11
2022-11-16T01:28:48.797Z,6.18
2022-11-16T01:31:21.837Z,6.40
2022-11-16T01:33:58.093Z,6.29
2022-11-16T01:36:31.140Z,6.34
2022-11-16T01:39:03.554Z,6.28
2022-11-16T01:41:36.695Z,6.39
2022-11-16T01:44:11.175Z,6.58
2022-11-16T01:46:44.673Z,6.26
2022-11-16T01:49:23.876Z,6.33
2022-11-16T01:52:00.434Z,6.48
2022-11-16T01:54:34.562Z,6.57
2022-11-16T01:57:09.813Z,6.43
2022-11-16T01:59:42.693Z,6.50
2022-11-16T02:02:16.036Z,6.55
2022-11-16T02:04:52.194Z,6.33
2022-11-16T02:07:58.913Z,6.32
2022-11-16T02:10:47.433Z,6.31
2022-11-16T02:13:37.552Z,6.07
2022-11-16T02:16:23.336Z,5.98
2022-11-16T02:19:05.414Z,6.16
2022-11-16T02:21:47.692Z,5.89
2022-11-16T02:24:46.239Z,5.77
2022-11-16T02:27:48.200Z,6.03
2022-11-16T02:30:26.111Z,6.12
2022-11-16T02:33:04.151Z,6.19
2022-11-16T02:35:41.285Z,5.97
2022-11-16T02:38:17.647Z,5.83
2022-11-16T02:40:53.707Z,5.71
2022-11-16T02:43:29.990Z,5.82
2022-11-16T02:46:10.360Z,5.72
2022-11-16T02:48:47.226Z,5.70
2022-11-16T02:51:20.584Z,5.94
2022-11-16T02:54:05.235Z,6.11
2022-11-16T02:56:47.029Z,6.10
2022-11-16T02:59:19.224Z,5.96
2022-11-16T03:05:32.275Z,5.29
2022-11-16T03:08:11.224Z,5.40
2022-11-16T03:10:57.160Z,5.60
2022-11-16T03:13:34.128Z,5.67
2022-11-16T03:16:11.160Z,5.77
2022-11-16T03:18:44.847Z,5.61
2022-11-16T03:21:26.269Z,5.37
2022-11-16T03:23:57.992Z,5.68
2022-11-16T03:26:35.634Z,5.80
2022-11-16T03:29:15.780Z,5.66
2022-11-16T03:31:52.446Z,6.32
2022-11-16T03:34:30.588Z,5.89
2022-11-16T03:37:06.710Z,5.91
2022-11-16T03:39:42.385Z,6.02
2022-11-16T03:42:17.221Z,6.15
2022-11-16T03:44:51.609Z,6.33
2022-11-16T03:47:22.860Z,6.19
2022-11-16T03:49:54.600Z,5.81
2022-11-16T03:52:28.709Z,5.97
2022-11-16T03:55:00.585Z,6.06
2022-11-16T03:57:31.687Z,6.50
2022-11-16T04:00:03.230Z,6.34
2022-11-16T04:02:34.688Z,6.48
2022-11-16T04:05:18.674Z,6.20
2022-11-16T04:08:05.181Z,5.92
2022-11-16T04:10:49.237Z,5.88
2022-11-16T04:13:40.823Z,5.60
2022-11-16T04:16:26.157Z,5.84
2022-11-16T04:19:09.743Z,5.98
2022-11-16T04:22:04.825Z,5.99
2022-11-16T04:24:42.822Z,6.06
2022-11-16T04:27:31.289Z,6.05
2022-11-16T04:30:04.273Z,6.26
2022-11-16T04:32:49.269Z,6.21
2022-11-16T04:35:32.712Z,6.06
2022-11-16T04:38:04.461Z,6.26
2022-11-16T04:40:38.316Z,5.91
2022-11-16T04:43:10.192Z,5.94
2022-11-16T04:45:53.753Z,5.86
2022-11-16T04:48:25.780Z,6.11
2022-11-16T04:50:57.431Z,5.76
2022-11-16T04:53:29.377Z,5.89
2022-11-16T04:56:03.413Z,5.75
2022-11-16T04:58:35.343Z,5.83
2022-11-16T05:01:06.715Z,6.17
2022-11-16T05:03:38.517Z,6.08
2022-11-16T05:06:10.536Z,6.24
2022-11-16T05:08:42.185Z,6.27
2022-11-16T05:11:16.253Z,6.20
2022-11-16T05:13:47.926Z,6.27
2022-11-16T05:16:19.337Z,6.12
2022-11-16T05:19:11.441Z,6.16
2022-11-16T05:21:40.049Z,6.09
2022-11-16T05:24:24.359Z,6.11
2022-11-16T05:26:58.075Z,6.11
2022-11-16T05:29:30.317Z,6.30
2022-11-16T05:32:01.523Z,6.42
2022-11-16T05:34:34.194Z,6.26
2022-11-16T05:37:05.695Z,6.39
2022-11-16T05:39:37.827Z,6.29
2022-11-16T05:42:12.267Z,6.50
2022-11-16T05:44:44.066Z,6.78
2022-11-16T05:47:15.460Z,6.80
2022-11-16T05:49:47.171Z,6.81
2022-11-16T05:52:18.293Z,6.99
2022-11-16T05:54:50.225Z,6.87
2022-11-16T05:57:24.174Z,6.67
2022-11-16T05:59:55.827Z,6.53
2022-11-16T06:05:25.025Z,6.97
2022-11-16T06:07:56.493Z,6.84
2022-11-16T06:10:27.853Z,7.10
2022-11-16T06:13:04.072Z,7.24
2022-11-16T06:15:35.336Z,7.09
2022-11-16T06:18:07.293Z,7.21
2022-11-16T06:20:40.358Z,6.96
2022-11-16T06:23:11.639Z,7.24
2022-11-16T06:25:43.325Z,7.47
2022-11-16T06:28:17.500Z,7.24
2022-11-16T06:30:48.856Z,6.97
2022-11-16T06:33:21.405Z,7.21
2022-11-16T06:35:52.233Z,7.07
2022-11-16T06:38:24.101Z,6.94
2022-11-16T06:40:57.335Z,7.10
2022-11-16T06:43:31.547Z,7.09
2022-11-16T06:46:02.873Z,7.07
2022-11-16T06:48:35.016Z,6.82
2022-11-16T06:51:06.361Z,6.90
2022-11-16T06:53:38.490Z,7.27
2022-11-16T06:56:10.769Z,7.47
2022-11-16T06:58:45.533Z,7.43
2022-11-16T07:01:17.665Z,7.09
2022-11-16T07:03:49.742Z,7.04
2022-11-16T07:06:21.375Z,7.17
2022-11-16T07:08:53.427Z,7.26
2022-11-16T07:11:24.913Z,7.35
2022-11-16T07:14:01.461Z,7.23
2022-11-16T07:16:35.669Z,7.45
2022-11-16T07:19:08.250Z,7.57
2022-11-16T07:21:41.382Z,7.47
2022-11-16T07:24:14.189Z,7.10
2022-11-16T07:26:45.725Z,7.27
2022-11-16T07:29:21.865Z,7.10
2022-11-16T07:31:53.800Z,7.25
2022-11-16T07:34:25.840Z,7.01
2022-11-16T07:36:57.479Z,6.99
2022-11-16T07:39:44.412Z,6.81
2022-11-16T07:42:17.268Z,7.36
2022-11-16T07:44:53.787Z,7.12
2022-11-16T07:47:26.919Z,7.30
2022-11-16T07:50:00.627Z,7.31
2022-11-16T07:52:34.016Z,7.19
2022-11-16T07:55:08.078Z,7.30
2022-11-16T07:57:41.318Z,7.65
2022-11-16T08:00:18.559Z,7.27
2022-11-16T08:02:51.837Z,7.41
2022-11-16T08:05:25.717Z,7.44
2022-11-16T08:07:58.917Z,7.27
2022-11-16T08:10:34.158Z,7.47
2022-11-16T08:13:07.757Z,7.34
2022-11-16T08:15:46.496Z,7.42
2022-11-16T08:18:21.204Z,7.17
2022-11-16T08:20:53.801Z,7.01
2022-11-16T08:23:26.090Z,7.12
2022-11-16T08:26:02.341Z,7.12
2022-11-16T08:28:36.210Z,7.34
2022-11-16T08:31:15.642Z,7.26
2022-11-16T08:34:03.842Z,7.28
2022-11-16T08:36:36.524Z,7.31
2022-11-16T08:39:10.427Z,7.30
2022-11-16T08:41:44.773Z,7.13
2022-11-16T08:44:22.489Z,7.00
2022-11-16T08:46:57.899Z,7.08
2022-11-16T08:49:34.566Z,7.24
2022-11-16T08:52:10.891Z,7.19
2022-11-16T08:54:43.328Z,7.08
2022-11-16T08:57:17.708Z,7.24
2022-11-16T08:59:49.903Z,7.36
2022-11-16T09:02:25.962Z,7.66
2022-11-16T09:04:58.187Z,7.67
2022-11-16T09:07:31.323Z,7.52
2022-11-16T09:10:03.572Z,7.22
2022-11-16T09:12:36.674Z,7.57
2022-11-16T09:15:12.253Z,7.36
2022-11-16T09:17:55.282Z,7.39
2022-11-16T09:20:31.477Z,7.42
2022-11-16T09:23:03.531Z,7.27
2022-11-16T09:25:35.604Z,7.14
2022-11-16T09:28:09.896Z,7.28
2022-11-16T09:30:41.511Z,7.37
2022-11-16T09:33:16.662Z,7.17
2022-11-16T09:35:49.421Z,7.06
2022-11-16T09:38:40.289Z,7.18
2022-11-16T09:41:38.092Z,7.41
2022-11-16T09:44:25.601Z,7.66
2022-11-16T09:47:03.056Z,7.61
2022-11-16T09:49:44.780Z,7.38
2022-11-16T09:52:29.365Z,7.38
2022-11-16T09:55:15.930Z,7.35
2022-11-16T10:00:45.461Z,7.36
2022-11-16T10:03:19.978Z,7.27
2022-11-16T10:06:06.544Z,7.23
2022-11-16T10:08:48.179Z,7.37
2022-11-16T10:11:51.571Z,7.78
2022-11-16T10:14:39.442Z,7.26
2022-11-16T10:17:24.321Z,7.38
2022-11-16T10:20:00.307Z,7.28
2022-11-16T10:23:04.267Z,7.47
2022-11-16T10:25:46.108Z,7.31
2022-11-16T10:28:48.387Z,7.57
2022-11-16T10:31:30.872Z,7.22
2022-11-16T10:34:06.696Z,7.36
2022-11-16T10:36:43.870Z,7.24
2022-11-16T10:39:21.420Z,7.16
2022-11-16T10:41:54.006Z,7.23
2022-11-16T10:44:36.250Z,7.57
2022-11-16T10:47:15.858Z,7.38
2022-11-16T10:49:59.027Z,7.39
2022-11-16T10:52:34.604Z,7.22
2022-11-16T10:55:19.456Z,7.25
2022-11-16T10:58:03.456Z,7.51
2022-11-16T11:00:49.614Z,7.39
2022-11-16T11:03:36.975Z,7.20
2022-11-16T11:06:14.330Z,6.72
2022-11-16T11:08:45.521Z,6.88
2022-11-16T11:11:38.799Z,6.91
2022-11-16T11:14:14.650Z,6.87
2022-11-16T11:16:46.905Z,7.08
2022-11-16T11:19:24.990Z,7.60
2022-11-16T11:22:01.182Z,7.57
2022-11-16T11:24:48.269Z,7.63
2022-11-16T11:27:31.097Z,7.49
2022-11-16T11:30:04.742Z,7.64
2022-11-16T11:32:48.011Z,7.19
2022-11-16T11:35:28.468Z,7.45
2022-11-16T11:38:08.023Z,7.27
2022-11-16T11:40:45.073Z,7.51
2022-11-16T11:43:27.262Z,7.50
2022-11-16T11:46:07.531Z,7.48
2022-11-16T11:48:49.071Z,7.18
2022-11-16T11:51:28.945Z,7.10
2022-11-16T11:54:02.840Z,6.92
2022-11-16T11:56:38.180Z,7.05
2022-11-16T11:59:21.299Z,7.29
2022-11-16T12:02:19.797Z,7.20
2022-11-16T12:05:35.999Z,7.17
2022-11-16T12:08:25.706Z,7.07
2022-11-16T12:11:06.864Z,7.32
2022-11-16T12:14:00.292Z,7.61
2022-11-16T12:16:48.130Z,7.46
2022-11-16T12:19:42.694Z,7.52
2022-11-16T12:22:32.589Z,7.64
2022-11-16T12:25:21.270Z,7.11
2022-11-16T12:28:17.107Z,7.24
2022-11-16T12:31:03.263Z,7.66
2022-11-16T12:33:47.519Z,7.32
2022-11-16T12:36:43.779Z,7.16
2022-11-16T12:39:28.920Z,7.55
2022-11-16T12:42:40.539Z,7.38
2022-11-16T12:45:39.314Z,7.51
2022-11-16T12:48:31.095Z,7.57
2022-11-16T12:51:18.684Z,7.31
2022-11-16T12:54:17.496Z,7.66
2022-11-16T12:56:57.524Z,7.89
2022-11-16T12:59:44.428Z,8.09
2022-11-16T13:02:31.368Z,7.58
2022-11-16T13:05:13.824Z,7.53
2022-11-16T13:07:52.630Z,7.77
2022-11-16T13:10:30.802Z,7.79
2022-11-16T13:13:34.786Z,7.20
2022-11-16T13:16:08.091Z,7.52
2022-11-16T13:18:46.056Z,7.48
2022-11-16T13:21:32.167Z,7.48
2022-11-16T13:24:25.077Z,7.55
2022-11-16T13:27:06.584Z,7.64
2022-11-16T13:29:47.207Z,7.26
2022-11-16T13:32:26.344Z,7.34
2022-11-16T13:35:01.062Z,7.38
2022-11-16T13:37:47.810Z,7.49
2022-11-16T13:40:37.610Z,7.78
2022-11-16T13:43:33.693Z,7.41
2022-11-16T13:46:54.372Z,7.90
2022-11-16T13:49:34.930Z,7.80
2022-11-16T13:52:23.102Z,7.95
2022-11-16T13:55:02.121Z,7.46
2022-11-16T13:57:39.236Z,7.53
2022-11-16T14:00:15.958Z,7.91
2022-11-16T14:02:49.524Z,8.09
2022-11-16T14:05:42.836Z,7.92
2022-11-16T14:08:48.281Z,7.71
2022-11-16T14:11:36.961Z,7.49
2022-11-16T14:14:17.479Z,7.62
2022-11-16T14:16:53.639Z,7.61
2022-11-16T14:20:00.913Z,7.65
2022-11-16T14:23:02.790Z,7.74
2022-11-16T14:25:47.632Z,7.80
2022-11-16T14:28:47.241Z,7.78
2022-11-16T14:31:28.880Z,7.98
2022-11-16T14:34:04.719Z,7.82
2022-11-16T14:36:43.843Z,7.59
2022-11-16T14:39:37.921Z,7.78
2022-11-16T14:42:20.969Z,7.63
2022-11-16T14:45:03.762Z,7.80
2022-11-16T14:47:41.084Z,7.51
2022-11-16T14:50:23.440Z,7.49
2022-11-16T14:53:01.001Z,7.56
2022-11-16T14:55:34.765Z,7.52
2022-11-16T14:58:12.721Z,7.54
2022-11-16T15:00:56.050Z,7.55
2022-11-16T15:03:37.450Z,7.88
2022-11-16T15:06:28.885Z,7.90
2022-11-16T15:09:05.997Z,7.68
2022-11-16T15:11:55.595Z,7.27
2022-11-16T15:14:33.236Z,7.39
2022-11-16T15:17:07.477Z,7.34
2022-11-16T15:19:44.020Z,7.12
2022-11-16T15:22:21.821Z,7.07
2022-11-16T15:24:59.866Z,7.10
2022-11-16T15:27:49.090Z,7.14
2022-11-16T15:30:25.404Z,7.11
2022-11-16T15:32:59.654Z,7.15
2022-11-16T15:35:37.794Z,7.35
2022-11-16T15:38:19.039Z,7.53
2022-11-16T15:40:55.565Z,7.40
2022-11-16T15:43:33.047Z,7.18
2022-11-16T15:46:08.601Z,6.90
2022-11-16T15:48:42.607Z,6.90
2022-11-16T15:51:22.703Z,7.23
2022-11-16T15:53:56.926Z,7.56
2022-11-16T15:56:36.741Z,7.43
2022-11-16T15:59:17.301Z,7.29
2022-11-16T16:01:50.444Z,7.38
2022-11-16T16:04:24.658Z,7.49
2022-11-16T16:07:02.727Z,7.35
2022-11-16T16:09:38.540Z,7.41
2022-11-16T16:12:29.379Z,7.69
2022-11-16T16:15:24.269Z,7.57
2022-11-16T16:17:58.141Z,7.62
2022-11-16T16:20:33.505Z,7.27
2022-11-16T16:23:16.916Z,7.00
2022-11-16T16:25:50.757Z,7.33
2022-11-16T16:28:23.865Z,7.60
2022-11-16T16:30:57.241Z,7.60
2022-11-16T16:33:30.619Z,7.72
2022-11-16T16:36:07.098Z,7.42
2022-11-16T16:38:42.977Z,7.41
2022-11-16T16:41:24.573Z,7.41
2022-11-16T16:43:57.969Z,7.30
2022-11-16T16:46:31.288Z,7.41
2022-11-16T16:49:04.255Z,7.19
2022-11-16T16:51:37.221Z,7.05
2022-11-16T16:54:16.800Z,6.86
2022-11-16T16:56:50.220Z,7.08
2022-11-16T16:59:23.335Z,7.37
2022-11-16T17:01:56.833Z,7.36
2022-11-16T17:04:30.112Z,7.36
2022-11-16T17:07:03.612Z,7.31
2022-11-16T17:09:39.672Z,7.26
2022-11-16T17:12:13.873Z,7.12
2022-11-16T17:14:52.154Z,7.24
2022-11-16T17:17:26.873Z,7.20
2022-11-16T17:19:59.888Z,7.26
2022-11-16T17:22:34.075Z,7.80
2022-11-16T17:25:10.321Z,7.55
2022-11-16T17:27:43.298Z,7.25
2022-11-16T17:30:17.817Z,7.51
2022-11-16T17:32:51.306Z,7.29
2022-11-16T17:35:24.580Z,7.26
2022-11-16T17:37:59.416Z,7.05
2022-11-16T17:40:35.380Z,7.15
2022-11-16T17:43:08.936Z,7.57
2022-11-16T17:45:41.859Z,7.34
2022-11-16T17:48:15.176Z,7.13
2022-11-16T17:50:51.940Z,7.08
2022-11-16T17:53:31.220Z,7.60
2022-11-16T17:56:09.658Z,7.16
2022-11-16T17:58:43.539Z,7.36
2022-11-16T18:01:18.113Z,7.22
2022-11-16T18:03:51.898Z,6.98
2022-11-16T18:06:27.336Z,7.36
2022-11-16T18:09:01.105Z,7.16
2022-11-16T18:11:37.458Z,6.94
2022-11-16T18:14:11.298Z,7.13
2022-11-16T18:16:44.978Z,7.25
2022-11-16T18:19:20.467Z,7.25
2022-11-16T18:21:54.138Z,7.33
2022-11-16T18:24:28.139Z,7.32
2022-11-16T18:27:04.508Z,6.99
2022-11-16T18:29:38.061Z,7.04
2022-11-16T18:32:13.346Z,6.94
2022-11-16T18:34:47.097Z,7.17
2022-11-16T18:37:20.780Z,7.25
2022-11-16T18:39:53.482Z,7.02
2022-11-16T18:42:27.846Z,7.13
2022-11-16T18:45:00.048Z,7.07
2022-11-16T18:47:31.789Z,7.31
2022-11-16T18:50:03.806Z,7.18
2022-11-16T18:52:35.435Z,7.00
2022-11-16T18:55:09.485Z,7.24
2022-11-16T18:57:43.490Z,7.16
2022-11-16T19:00:19.422Z,7.17
2022-11-16T19:02:51.343Z,7.26
2022-11-16T19:05:23.275Z,7.17
2022-11-16T19:07:55.009Z,7.05
2022-11-16T19:10:26.596Z,7.23
2022-11-16T19:13:00.548Z,7.19
2022-11-16T19:15:32.339Z,7.01
2022-11-16T19:18:21.400Z,7.00
2022-11-16T19:20:53.546Z,7.25
2022-11-16T19:23:24.861Z,7.23
2022-11-16T19:26:05.096Z,7.08
2022-11-16T19:28:46.140Z,7.04
2022-11-16T19:31:26.492Z,7.13
2022-11-16T19:34:04.797Z,7.62
2022-11-16T19:36:39.275Z,7.51
2022-11-16T19:39:10.824Z,7.01
2022-11-16T19:41:43.633Z,7.08
2022-11-16T19:44:18.972Z,7.05
2022-11-16T19:46:53.732Z,6.99
2022-11-16T19:49:26.715Z,6.82
2022-11-16T19:51:59.951Z,7.04
2022-11-16T19:54:32.813Z,7.49
2022-11-16T19:57:05.834Z,7.12
2022-11-16T19:59:41.374Z,6.76
2022-11-16T20:02:14.394Z,7.15
2022-11-16T20:04:47.270Z,7.04
2022-11-16T20:07:20.435Z,6.73
2022-11-16T20:09:53.640Z,6.98
2022-11-16T20:12:26.953Z,7.19
2022-11-16T20:15:03.322Z,7.27
2022-11-16T20:17:50.204Z,7.24
2022-11-16T20:20:29.521Z,7.11
2022-11-16T20:23:02.575Z,7.23
2022-11-16T20:25:35.129Z,6.91
2022-11-16T20:28:08.402Z,7.01
2022-11-16T20:30:49.828Z,6.85
2022-11-16T20:33:24.141Z,6.87
2022-11-16T20:36:02.900Z,6.92
2022-11-16T20:38:36.909Z,7.11
2022-11-16T20:41:14.683Z,7.22
2022-11-16T20:43:49.080Z,6.86
2022-11-16T20:46:26.522Z,6.76
2022-11-16T20:49:02.202Z,6.84
2022-11-16T20:51:35.121Z,7.00
2022-11-16T20:54:08.521Z,7.19
2022-11-16T20:56:41.373Z,6.82
2022-11-16T20:59:14.481Z,6.96
2022-11-16T21:01:51.096Z,7.16
2022-11-16T21:04:24.042Z,7.18
2022-11-16T21:06:56.899Z,6.60
2022-11-16T21:09:50.359Z,6.54
2022-11-16T21:12:38.813Z,6.48
2022-11-16T21:15:16.023Z,6.99
2022-11-16T21:17:51.941Z,6.44
2022-11-16T21:20:28.243Z,6.55
2022-11-16T21:23:01.824Z,6.54
2022-11-16T21:25:37.661Z,6.14
2022-11-16T21:28:10.883Z,6.34
2022-11-16T21:30:44.421Z,6.26
2022-11-16T21:33:20.201Z,6.49
2022-11-16T21:35:54.922Z,6.59
2022-11-16T21:38:29.088Z,6.21
2022-11-16T21:41:02.640Z,6.27
2022-11-16T21:43:37.005Z,6.19
2022-11-16T21:46:12.080Z,6.38
2022-11-16T21:48:48.501Z,6.35
2022-11-16T21:51:25.303Z,6.42
2022-11-16T21:53:58.863Z,6.21
2022-11-16T21:56:32.082Z,6.13
2022-11-16T21:59:04.702Z,6.14
2022-11-16T22:01:57.901Z,5.90
2022-11-16T22:04:46.022Z,5.65
2022-11-16T22:07:31.457Z,5.84
2022-11-16T22:10:04.845Z,5.99
2022-11-16T22:12:38.984Z,6.03
2022-11-16T22:15:12.903Z,5.74
2022-11-16T22:17:47.942Z,5.82
2022-11-16T22:20:23.741Z,5.95
2022-11-16T22:22:56.781Z,5.89
2022-11-16T22:25:29.650Z,6.25
2022-11-16T22:28:20.216Z,6.10
2022-11-16T22:30:53.742Z,5.76
2022-11-16T22:33:27.126Z,5.86
2022-11-16T22:36:02.565Z,5.86
2022-11-16T22:38:37.282Z,5.92
2022-11-16T22:41:10.089Z,5.97
2022-11-16T22:43:43.364Z,6.15
2022-11-16T22:46:16.004Z,6.34
2022-11-16T22:48:49.182Z,5.69
2022-11-16T22:51:26.921Z,5.71
2022-11-16T22:54:01.524Z,5.92
2022-11-16T22:56:35.481Z,5.99
2022-11-16T22:59:10.181Z,5.88
2022-11-16T23:01:43.382Z,5.83
2022-11-16T23:04:16.524Z,5.81
2022-11-16T23:06:52.319Z,5.92
2022-11-16T23:09:25.284Z,5.85
2022-11-16T23:12:10.545Z,5.67
2022-11-16T23:14:55.765Z,5.32
2022-11-16T23:17:28.570Z,5.55
2022-11-16T23:20:17.596Z,5.44
2022-11-16T23:23:05.597Z,5.46
2022-11-16T23:25:50.824Z,5.41
2022-11-16T23:28:24.314Z,5.68
2022-11-16T23:30:57.464Z,5.72
2022-11-16T23:33:42.345Z,5.52
2022-11-16T23:36:16.391Z,5.12
2022-11-16T23:38:52.005Z,5.19
2022-11-16T23:41:37.024Z,5.42
2022-11-16T23:44:10.124Z,5.21
2022-11-16T23:46:42.541Z,5.31
2022-11-16T23:49:14.204Z,5.25
2022-11-16T23:51:46.234Z,5.04
2022-11-16T23:54:20.600Z,5.11
2022-11-16T23:56:52.488Z,5.04
2022-11-16T23:59:24.121Z,5.38
